NCAR-RAP Real-Time Weather Data

Output produced by METARs form (10 April 2020  07:27 UTC)
found at http://weather.rap.ucar.edu/surface/
 
KHSI 100653Z AUTO 06006KT 10SM CLR M04/M11 A3020 RMK AO2 SLP239 T10441106
KHSI 100553Z AUTO 06004KT 10SM CLR M02/M11 A3023 RMK AO2 SLP247 T10221111 10083 21033 401331033 50002
KHSI 100453Z AUTO 04009KT 10SM CLR M03/M11 A3023 RMK AO2 SLP249 T10281106
KHSI 100353Z AUTO 04006KT 10SM CLR M01/M11 A3024 RMK AO2 SLP250 T10061106
KHSI 100253Z AUTO 04010KT 10SM CLR 02/M09 A3022 RMK AO2 SLP245 T00171089 53019
KHSI 100153Z AUTO 02010KT 10SM CLR 03/M08 A3019 RMK AO2 SLP234 T00281083
KHSI 100053Z AUTO 02015G21KT 10SM CLR 06/M08 A3017 RMK AO2 SLP227 T00611078
KHSI 092353Z AUTO 01018G25KT 10SM CLR 08/M09 A3016 RMK AO2 PK WND 36027/2317 SLP225 T00831089 10133 20083 53013
KHSI 092253Z AUTO 36020G26KT 10SM CLR 11/M10 A3015 RMK AO2 PK WND 01032/2154 SLP219 T01061100
KHSI 092153Z AUTO 36022G33KT 10SM CLR 12/M11 A3013 RMK AO2 PK WND 35033/2145 SLP212 T01171106
KHSI 092053Z AUTO 33020G35KT 10SM CLR 13/M12 A3012 RMK AO2 PK WND 36047/2007 SLP207 T01281122 56011
KHSI 091953Z AUTO 33026G39KT 10SM CLR 13/M09 A3013 RMK AO2 PK WND 34041/1942 SLP209 T01281094
KHSI 091853Z AUTO 32025G36KT 10SM CLR 13/M08 A3014 RMK AO2 PK WND 34036/1845 SLP213 T01281083
KHSI 091753Z AUTO 32023G30KT 10SM FEW090 13/M06 A3016 RMK AO2 PK WND 32032/1733 SLP216 T01281056 10128 20000 58000
KHSI 091653Z AUTO 31019G27KT 10SM SCT095 11/M06 A3018 RMK AO2 PK WND 32037/1624 SLP226 T01061056
KHSI 091553Z AUTO 31014G22KT 10SM BKN090 09/M05 A3017 RMK AO2 SLP224 T00891050
KHSI 091353Z AUTO 28008KT 10SM BKN095 05/M04 A3016 RMK AO2 SLP220 T00501039
KHSI 091253Z AUTO 29007KT 10SM CLR 01/M04 A3015 RMK AO2 SLP218 T00111044
KHSI 091153Z AUTO 34008KT 10SM CLR 01/M05 A3012 RMK AO2 SLP207 T00061050 10039 21011 53001
KHSI 091053Z AUTO 31006KT 10SM CLR M01/M05 A3011 RMK AO2 SLP204 T10061050
KHSI 090953Z AUTO 31005KT 10SM CLR 00/M04 A3011 RMK AO2 SLP201 T00001044
KHSI 090853Z AUTO 00000KT 10SM CLR 01/M04 A3012 RMK AO2 SLP203 T00111039 53008